<?xml version="1.0" encoding="UTF-8"?>
<gpx creator="Wikiloc - https://www.wikiloc.com" version="1.1" xmlns="http://www.topografix.com/GPX/1/1" xmlns:xsi="http://www.w3.org/2001/XMLSchema-instance" xsi:schemaLocation="http://www.topografix.com/GPX/1/1 http://www.topografix.com/GPX/1/1/gpx.xsd">
  <metadata>
    <name>Wikiloc - Covalagua - Mirador de Valcabado - Pozo de los lobos - Menhi...</name>
    <link href="https://www.wikiloc.com/hiking-trails/covalagua-mirador-de-valcabado-pozo-de-los-lobos-menhir-de-canto-hito-cueva-de-los-franceses-ibp-55-67011435">
      <text>Covalagua - Mirador de Valcabado - Pozo de los lobos - Menhi... on Wikiloc</text>
    </link>
    <time>2021-03-02T14:56:28Z</time>
  </metadata>
  <trk>
    <name>Covalagua - Mirador de Valcabado - Pozo de los lobos - Menhi... - Wikiloc</name>
    <cmt></cmt>
    <desc></desc>
    <trkseg>
      <trkpt lat="42.767518" lon="-4.136780">
        <ele>1074.051</ele>
        <time>2021-03-02T09:11:32Z</time>
      </trkpt>
      <trkpt lat="42.768735" lon="-4.134942">
        <ele>1079.901</ele>
        <time>2021-03-02T09:15:08Z</time>
      </trkpt>
      <trkpt lat="42.770029" lon="-4.130818">
        <ele>1078.411</ele>
        <time>2021-03-02T09:22:42Z</time>
      </trkpt>
      <trkpt lat="42.770093" lon="-4.130295">
        <ele>1079.308</ele>
        <time>2021-03-02T09:23:17Z</time>
      </trkpt>
      <trkpt lat="42.770485" lon="-4.129502">
        <ele>1075.861</ele>
        <time>2021-03-02T09:25:32Z</time>
      </trkpt>
      <trkpt lat="42.770453" lon="-4.129100">
        <ele>1075.962</ele>
        <time>2021-03-02T09:26:15Z</time>
      </trkpt>
      <trkpt lat="42.770541" lon="-4.128965">
        <ele>1075.735</ele>
        <time>2021-03-02T09:26:57Z</time>
      </trkpt>
      <trkpt lat="42.770396" lon="-4.129443">
        <ele>1074.246</ele>
        <time>2021-03-02T09:29:57Z</time>
      </trkpt>
      <trkpt lat="42.770224" lon="-4.128889">
        <ele>1084.896</ele>
        <time>2021-03-02T09:31:09Z</time>
      </trkpt>
      <trkpt lat="42.770363" lon="-4.129490">
        <ele>1079.369</ele>
        <time>2021-03-02T09:34:31Z</time>
      </trkpt>
      <trkpt lat="42.770423" lon="-4.129074">
        <ele>1072.968</ele>
        <time>2021-03-02T09:35:09Z</time>
      </trkpt>
      <trkpt lat="42.770672" lon="-4.128871">
        <ele>1069.830</ele>
        <time>2021-03-02T09:36:32Z</time>
      </trkpt>
      <trkpt lat="42.771123" lon="-4.129414">
        <ele>1057.111</ele>
        <time>2021-03-02T09:39:00Z</time>
      </trkpt>
      <trkpt lat="42.771048" lon="-4.129311">
        <ele>1054.421</ele>
        <time>2021-03-02T09:39:34Z</time>
      </trkpt>
      <trkpt lat="42.771024" lon="-4.129435">
        <ele>1052.303</ele>
        <time>2021-03-02T09:39:53Z</time>
      </trkpt>
      <trkpt lat="42.771082" lon="-4.129202">
        <ele>1053.008</ele>
        <time>2021-03-02T09:42:44Z</time>
      </trkpt>
      <trkpt lat="42.771842" lon="-4.128312">
        <ele>1067.257</ele>
        <time>2021-03-02T09:45:55Z</time>
      </trkpt>
      <trkpt lat="42.772034" lon="-4.127785">
        <ele>1069.688</ele>
        <time>2021-03-02T09:46:51Z</time>
      </trkpt>
      <trkpt lat="42.772438" lon="-4.127194">
        <ele>1077.161</ele>
        <time>2021-03-02T09:47:54Z</time>
      </trkpt>
      <trkpt lat="42.772516" lon="-4.126780">
        <ele>1079.772</ele>
        <time>2021-03-02T09:48:27Z</time>
      </trkpt>
      <trkpt lat="42.772239" lon="-4.126915">
        <ele>1079.542</ele>
        <time>2021-03-02T09:48:56Z</time>
      </trkpt>
      <trkpt lat="42.772327" lon="-4.126186">
        <ele>1090.055</ele>
        <time>2021-03-02T09:50:14Z</time>
      </trkpt>
      <trkpt lat="42.772247" lon="-4.125752">
        <ele>1106.994</ele>
        <time>2021-03-02T09:51:15Z</time>
      </trkpt>
      <trkpt lat="42.772387" lon="-4.125247">
        <ele>1113.376</ele>
        <time>2021-03-02T09:52:07Z</time>
      </trkpt>
      <trkpt lat="42.772612" lon="-4.125061">
        <ele>1114.828</ele>
        <time>2021-03-02T09:53:52Z</time>
      </trkpt>
      <trkpt lat="42.772723" lon="-4.124686">
        <ele>1122.289</ele>
        <time>2021-03-02T09:54:25Z</time>
      </trkpt>
      <trkpt lat="42.773187" lon="-4.125457">
        <ele>1130.117</ele>
        <time>2021-03-02T09:57:00Z</time>
      </trkpt>
      <trkpt lat="42.773347" lon="-4.128456">
        <ele>1136.708</ele>
        <time>2021-03-02T10:00:50Z</time>
      </trkpt>
      <trkpt lat="42.773254" lon="-4.128673">
        <ele>1139.428</ele>
        <time>2021-03-02T10:01:09Z</time>
      </trkpt>
      <trkpt lat="42.772824" lon="-4.128619">
        <ele>1137.919</ele>
        <time>2021-03-02T10:01:48Z</time>
      </trkpt>
      <trkpt lat="42.772960" lon="-4.128885">
        <ele>1134.682</ele>
        <time>2021-03-02T10:04:24Z</time>
      </trkpt>
      <trkpt lat="42.772637" lon="-4.131514">
        <ele>1138.273</ele>
        <time>2021-03-02T10:11:38Z</time>
      </trkpt>
      <trkpt lat="42.772695" lon="-4.132490">
        <ele>1140.353</ele>
        <time>2021-03-02T10:12:47Z</time>
      </trkpt>
      <trkpt lat="42.772315" lon="-4.134004">
        <ele>1143.146</ele>
        <time>2021-03-02T10:14:42Z</time>
      </trkpt>
      <trkpt lat="42.772397" lon="-4.134651">
        <ele>1143.085</ele>
        <time>2021-03-02T10:15:30Z</time>
      </trkpt>
      <trkpt lat="42.772338" lon="-4.136393">
        <ele>1143.057</ele>
        <time>2021-03-02T10:18:53Z</time>
      </trkpt>
      <trkpt lat="42.772486" lon="-4.136966">
        <ele>1143.342</ele>
        <time>2021-03-02T10:19:35Z</time>
      </trkpt>
      <trkpt lat="42.772703" lon="-4.137169">
        <ele>1148.522</ele>
        <time>2021-03-02T10:20:14Z</time>
      </trkpt>
      <trkpt lat="42.773091" lon="-4.137266">
        <ele>1152.114</ele>
        <time>2021-03-02T10:20:59Z</time>
      </trkpt>
      <trkpt lat="42.773322" lon="-4.137201">
        <ele>1154.008</ele>
        <time>2021-03-02T10:21:24Z</time>
      </trkpt>
      <trkpt lat="42.773712" lon="-4.136256">
        <ele>1154.110</ele>
        <time>2021-03-02T10:22:46Z</time>
      </trkpt>
      <trkpt lat="42.774913" lon="-4.135798">
        <ele>1153.091</ele>
        <time>2021-03-02T10:24:58Z</time>
      </trkpt>
      <trkpt lat="42.775087" lon="-4.136480">
        <ele>1153.534</ele>
        <time>2021-03-02T10:25:54Z</time>
      </trkpt>
      <trkpt lat="42.775755" lon="-4.137294">
        <ele>1152.635</ele>
        <time>2021-03-02T10:27:09Z</time>
      </trkpt>
      <trkpt lat="42.775952" lon="-4.137270">
        <ele>1151.445</ele>
        <time>2021-03-02T10:28:53Z</time>
      </trkpt>
      <trkpt lat="42.776150" lon="-4.136585">
        <ele>1151.418</ele>
        <time>2021-03-02T10:29:48Z</time>
      </trkpt>
      <trkpt lat="42.776488" lon="-4.136285">
        <ele>1152.877</ele>
        <time>2021-03-02T10:30:31Z</time>
      </trkpt>
      <trkpt lat="42.776735" lon="-4.135779">
        <ele>1149.829</ele>
        <time>2021-03-02T10:31:16Z</time>
      </trkpt>
      <trkpt lat="42.777193" lon="-4.135231">
        <ele>1149.657</ele>
        <time>2021-03-02T10:32:22Z</time>
      </trkpt>
      <trkpt lat="42.777456" lon="-4.135093">
        <ele>1147.900</ele>
        <time>2021-03-02T10:32:52Z</time>
      </trkpt>
      <trkpt lat="42.777808" lon="-4.134286">
        <ele>1151.020</ele>
        <time>2021-03-02T10:34:21Z</time>
      </trkpt>
      <trkpt lat="42.778251" lon="-4.134018">
        <ele>1146.608</ele>
        <time>2021-03-02T10:35:19Z</time>
      </trkpt>
      <trkpt lat="42.778729" lon="-4.133343">
        <ele>1151.011</ele>
        <time>2021-03-02T10:36:30Z</time>
      </trkpt>
      <trkpt lat="42.779183" lon="-4.133129">
        <ele>1148.112</ele>
        <time>2021-03-02T10:37:25Z</time>
      </trkpt>
      <trkpt lat="42.779506" lon="-4.133128">
        <ele>1146.785</ele>
        <time>2021-03-02T10:38:01Z</time>
      </trkpt>
      <trkpt lat="42.780368" lon="-4.132208">
        <ele>1150.766</ele>
        <time>2021-03-02T10:39:57Z</time>
      </trkpt>
      <trkpt lat="42.780556" lon="-4.131841">
        <ele>1152.356</ele>
        <time>2021-03-02T10:40:43Z</time>
      </trkpt>
      <trkpt lat="42.780902" lon="-4.131799">
        <ele>1152.829</ele>
        <time>2021-03-02T10:41:30Z</time>
      </trkpt>
      <trkpt lat="42.781264" lon="-4.131247">
        <ele>1148.138</ele>
        <time>2021-03-02T10:42:36Z</time>
      </trkpt>
      <trkpt lat="42.781686" lon="-4.131061">
        <ele>1147.680</ele>
        <time>2021-03-02T10:43:25Z</time>
      </trkpt>
      <trkpt lat="42.782063" lon="-4.130325">
        <ele>1157.327</ele>
        <time>2021-03-02T10:44:47Z</time>
      </trkpt>
      <trkpt lat="42.782138" lon="-4.129929">
        <ele>1161.668</ele>
        <time>2021-03-02T10:45:33Z</time>
      </trkpt>
      <trkpt lat="42.781905" lon="-4.129816">
        <ele>1163.314</ele>
        <time>2021-03-02T10:46:00Z</time>
      </trkpt>
      <trkpt lat="42.781323" lon="-4.129810">
        <ele>1164.508</ele>
        <time>2021-03-02T10:47:04Z</time>
      </trkpt>
      <trkpt lat="42.780851" lon="-4.130159">
        <ele>1163.818</ele>
        <time>2021-03-02T10:48:03Z</time>
      </trkpt>
      <trkpt lat="42.779997" lon="-4.130370">
        <ele>1163.379</ele>
        <time>2021-03-02T10:50:35Z</time>
      </trkpt>
      <trkpt lat="42.780071" lon="-4.129857">
        <ele>1159.232</ele>
        <time>2021-03-02T10:52:12Z</time>
      </trkpt>
      <trkpt lat="42.780458" lon="-4.128611">
        <ele>1165.343</ele>
        <time>2021-03-02T10:54:52Z</time>
      </trkpt>
      <trkpt lat="42.780912" lon="-4.127881">
        <ele>1170.823</ele>
        <time>2021-03-02T10:56:15Z</time>
      </trkpt>
      <trkpt lat="42.781657" lon="-4.127179">
        <ele>1176.746</ele>
        <time>2021-03-02T10:57:47Z</time>
      </trkpt>
      <trkpt lat="42.782098" lon="-4.126950">
        <ele>1180.925</ele>
        <time>2021-03-02T10:58:40Z</time>
      </trkpt>
      <trkpt lat="42.783093" lon="-4.124467">
        <ele>1187.147</ele>
        <time>2021-03-02T11:03:06Z</time>
      </trkpt>
      <trkpt lat="42.783685" lon="-4.123563">
        <ele>1195.777</ele>
        <time>2021-03-02T11:04:48Z</time>
      </trkpt>
      <trkpt lat="42.784052" lon="-4.123366">
        <ele>1198.461</ele>
        <time>2021-03-02T11:05:35Z</time>
      </trkpt>
      <trkpt lat="42.784453" lon="-4.122597">
        <ele>1202.027</ele>
        <time>2021-03-02T11:06:54Z</time>
      </trkpt>
      <trkpt lat="42.785142" lon="-4.122096">
        <ele>1209.308</ele>
        <time>2021-03-02T11:08:25Z</time>
      </trkpt>
      <trkpt lat="42.785056" lon="-4.121652">
        <ele>1209.153</ele>
        <time>2021-03-02T11:09:29Z</time>
      </trkpt>
      <trkpt lat="42.785196" lon="-4.121486">
        <ele>1210.344</ele>
        <time>2021-03-02T11:09:51Z</time>
      </trkpt>
      <trkpt lat="42.785072" lon="-4.120741">
        <ele>1205.827</ele>
        <time>2021-03-02T11:16:18Z</time>
      </trkpt>
      <trkpt lat="42.785299" lon="-4.119002">
        <ele>1210.978</ele>
        <time>2021-03-02T11:18:17Z</time>
      </trkpt>
      <trkpt lat="42.785235" lon="-4.117666">
        <ele>1203.288</ele>
        <time>2021-03-02T11:19:44Z</time>
      </trkpt>
      <trkpt lat="42.785326" lon="-4.117050">
        <ele>1208.561</ele>
        <time>2021-03-02T11:20:28Z</time>
      </trkpt>
      <trkpt lat="42.785156" lon="-4.116500">
        <ele>1207.860</ele>
        <time>2021-03-02T11:21:08Z</time>
      </trkpt>
      <trkpt lat="42.785059" lon="-4.115324">
        <ele>1197.822</ele>
        <time>2021-03-02T11:22:23Z</time>
      </trkpt>
      <trkpt lat="42.785256" lon="-4.114772">
        <ele>1200.016</ele>
        <time>2021-03-02T11:23:15Z</time>
      </trkpt>
      <trkpt lat="42.784068" lon="-4.109922">
        <ele>1208.176</ele>
        <time>2021-03-02T11:29:18Z</time>
      </trkpt>
      <trkpt lat="42.784085" lon="-4.109538">
        <ele>1206.213</ele>
        <time>2021-03-02T11:29:45Z</time>
      </trkpt>
      <trkpt lat="42.783771" lon="-4.108175">
        <ele>1197.208</ele>
        <time>2021-03-02T11:33:06Z</time>
      </trkpt>
      <trkpt lat="42.783841" lon="-4.108088">
        <ele>1197.247</ele>
        <time>2021-03-02T11:33:39Z</time>
      </trkpt>
      <trkpt lat="42.783722" lon="-4.108004">
        <ele>1196.738</ele>
        <time>2021-03-02T11:36:30Z</time>
      </trkpt>
      <trkpt lat="42.783775" lon="-4.108145">
        <ele>1194.671</ele>
        <time>2021-03-02T11:48:43Z</time>
      </trkpt>
      <trkpt lat="42.783051" lon="-4.106391">
        <ele>1199.952</ele>
        <time>2021-03-02T11:51:27Z</time>
      </trkpt>
      <trkpt lat="42.782521" lon="-4.104794">
        <ele>1205.292</ele>
        <time>2021-03-02T11:53:28Z</time>
      </trkpt>
      <trkpt lat="42.782110" lon="-4.104114">
        <ele>1207.945</ele>
        <time>2021-03-02T11:54:31Z</time>
      </trkpt>
      <trkpt lat="42.781912" lon="-4.103183">
        <ele>1214.134</ele>
        <time>2021-03-02T11:55:35Z</time>
      </trkpt>
      <trkpt lat="42.781767" lon="-4.102893">
        <ele>1212.676</ele>
        <time>2021-03-02T11:55:59Z</time>
      </trkpt>
      <trkpt lat="42.781423" lon="-4.102634">
        <ele>1215.455</ele>
        <time>2021-03-02T11:56:39Z</time>
      </trkpt>
      <trkpt lat="42.781603" lon="-4.102559">
        <ele>1219.907</ele>
        <time>2021-03-02T11:57:20Z</time>
      </trkpt>
      <trkpt lat="42.781785" lon="-4.102644">
        <ele>1224.317</ele>
        <time>2021-03-02T11:57:42Z</time>
      </trkpt>
      <trkpt lat="42.781667" lon="-4.102312">
        <ele>1222.408</ele>
        <time>2021-03-02T12:01:31Z</time>
      </trkpt>
      <trkpt lat="42.781453" lon="-4.102599">
        <ele>1222.721</ele>
        <time>2021-03-02T12:02:56Z</time>
      </trkpt>
      <trkpt lat="42.781395" lon="-4.102098">
        <ele>1221.182</ele>
        <time>2021-03-02T12:04:22Z</time>
      </trkpt>
      <trkpt lat="42.781161" lon="-4.102048">
        <ele>1222.495</ele>
        <time>2021-03-02T12:04:59Z</time>
      </trkpt>
      <trkpt lat="42.780357" lon="-4.101043">
        <ele>1213.156</ele>
        <time>2021-03-02T12:06:37Z</time>
      </trkpt>
      <trkpt lat="42.777552" lon="-4.098471">
        <ele>1202.766</ele>
        <time>2021-03-02T12:12:21Z</time>
      </trkpt>
      <trkpt lat="42.777358" lon="-4.097986">
        <ele>1203.169</ele>
        <time>2021-03-02T12:12:57Z</time>
      </trkpt>
      <trkpt lat="42.777056" lon="-4.097619">
        <ele>1201.648</ele>
        <time>2021-03-02T12:13:31Z</time>
      </trkpt>
      <trkpt lat="42.775819" lon="-4.096380">
        <ele>1190.450</ele>
        <time>2021-03-02T12:15:41Z</time>
      </trkpt>
      <trkpt lat="42.775363" lon="-4.096107">
        <ele>1186.175</ele>
        <time>2021-03-02T12:16:26Z</time>
      </trkpt>
      <trkpt lat="42.774037" lon="-4.094631">
        <ele>1158.028</ele>
        <time>2021-03-02T12:19:07Z</time>
      </trkpt>
      <trkpt lat="42.773333" lon="-4.094938">
        <ele>1150.920</ele>
        <time>2021-03-02T12:22:01Z</time>
      </trkpt>
      <trkpt lat="42.773418" lon="-4.094535">
        <ele>1143.208</ele>
        <time>2021-03-02T12:22:55Z</time>
      </trkpt>
      <trkpt lat="42.773786" lon="-4.094003">
        <ele>1129.613</ele>
        <time>2021-03-02T12:23:56Z</time>
      </trkpt>
      <trkpt lat="42.773688" lon="-4.093933">
        <ele>1126.754</ele>
        <time>2021-03-02T12:25:31Z</time>
      </trkpt>
      <trkpt lat="42.773801" lon="-4.093953">
        <ele>1123.787</ele>
        <time>2021-03-02T12:26:32Z</time>
      </trkpt>
      <trkpt lat="42.773413" lon="-4.094548">
        <ele>1135.838</ele>
        <time>2021-03-02T12:29:45Z</time>
      </trkpt>
      <trkpt lat="42.773334" lon="-4.094890">
        <ele>1143.858</ele>
        <time>2021-03-02T12:30:34Z</time>
      </trkpt>
      <trkpt lat="42.773001" lon="-4.094641">
        <ele>1150.581</ele>
        <time>2021-03-02T12:31:27Z</time>
      </trkpt>
      <trkpt lat="42.771982" lon="-4.093223">
        <ele>1149.790</ele>
        <time>2021-03-02T12:34:06Z</time>
      </trkpt>
      <trkpt lat="42.770951" lon="-4.091397">
        <ele>1140.742</ele>
        <time>2021-03-02T12:36:37Z</time>
      </trkpt>
      <trkpt lat="42.770363" lon="-4.090764">
        <ele>1135.369</ele>
        <time>2021-03-02T12:37:53Z</time>
      </trkpt>
      <trkpt lat="42.769358" lon="-4.090337">
        <ele>1137.404</ele>
        <time>2021-03-02T12:39:58Z</time>
      </trkpt>
      <trkpt lat="42.767890" lon="-4.090154">
        <ele>1131.424</ele>
        <time>2021-03-02T12:41:59Z</time>
      </trkpt>
      <trkpt lat="42.766597" lon="-4.090493">
        <ele>1132.208</ele>
        <time>2021-03-02T12:43:55Z</time>
      </trkpt>
      <trkpt lat="42.765890" lon="-4.091211">
        <ele>1131.122</ele>
        <time>2021-03-02T12:45:12Z</time>
      </trkpt>
      <trkpt lat="42.765074" lon="-4.091131">
        <ele>1128.583</ele>
        <time>2021-03-02T12:46:26Z</time>
      </trkpt>
      <trkpt lat="42.764400" lon="-4.091569">
        <ele>1126.586</ele>
        <time>2021-03-02T12:47:30Z</time>
      </trkpt>
      <trkpt lat="42.763561" lon="-4.091862">
        <ele>1127.237</ele>
        <time>2021-03-02T12:48:47Z</time>
      </trkpt>
      <trkpt lat="42.763333" lon="-4.092117">
        <ele>1128.417</ele>
        <time>2021-03-02T12:49:16Z</time>
      </trkpt>
      <trkpt lat="42.762759" lon="-4.092240">
        <ele>1125.640</ele>
        <time>2021-03-02T12:50:06Z</time>
      </trkpt>
      <trkpt lat="42.762485" lon="-4.092420">
        <ele>1125.129</ele>
        <time>2021-03-02T12:50:33Z</time>
      </trkpt>
      <trkpt lat="42.761937" lon="-4.092446">
        <ele>1126.251</ele>
        <time>2021-03-02T12:51:25Z</time>
      </trkpt>
      <trkpt lat="42.761384" lon="-4.092923">
        <ele>1128.056</ele>
        <time>2021-03-02T12:52:34Z</time>
      </trkpt>
      <trkpt lat="42.760572" lon="-4.093968">
        <ele>1129.059</ele>
        <time>2021-03-02T12:54:11Z</time>
      </trkpt>
      <trkpt lat="42.759887" lon="-4.093453">
        <ele>1125.314</ele>
        <time>2021-03-02T12:55:26Z</time>
      </trkpt>
      <trkpt lat="42.759607" lon="-4.093732">
        <ele>1122.208</ele>
        <time>2021-03-02T12:56:01Z</time>
      </trkpt>
      <trkpt lat="42.759497" lon="-4.094777">
        <ele>1123.431</ele>
        <time>2021-03-02T12:57:28Z</time>
      </trkpt>
      <trkpt lat="42.759247" lon="-4.095274">
        <ele>1126.552</ele>
        <time>2021-03-02T12:58:16Z</time>
      </trkpt>
      <trkpt lat="42.758914" lon="-4.095752">
        <ele>1133.255</ele>
        <time>2021-03-02T12:59:11Z</time>
      </trkpt>
      <trkpt lat="42.757644" lon="-4.096643">
        <ele>1138.016</ele>
        <time>2021-03-02T13:01:26Z</time>
      </trkpt>
      <trkpt lat="42.756947" lon="-4.097781">
        <ele>1141.856</ele>
        <time>2021-03-02T13:03:26Z</time>
      </trkpt>
      <trkpt lat="42.756720" lon="-4.098835">
        <ele>1141.189</ele>
        <time>2021-03-02T13:04:35Z</time>
      </trkpt>
      <trkpt lat="42.757130" lon="-4.102029">
        <ele>1143.248</ele>
        <time>2021-03-02T13:07:53Z</time>
      </trkpt>
      <trkpt lat="42.757182" lon="-4.103955">
        <ele>1142.540</ele>
        <time>2021-03-02T13:09:49Z</time>
      </trkpt>
      <trkpt lat="42.757740" lon="-4.107488">
        <ele>1143.958</ele>
        <time>2021-03-02T13:13:24Z</time>
      </trkpt>
      <trkpt lat="42.758309" lon="-4.109250">
        <ele>1146.652</ele>
        <time>2021-03-02T13:15:57Z</time>
      </trkpt>
      <trkpt lat="42.758502" lon="-4.110474">
        <ele>1153.917</ele>
        <time>2021-03-02T13:17:28Z</time>
      </trkpt>
      <trkpt lat="42.758810" lon="-4.111165">
        <ele>1157.208</ele>
        <time>2021-03-02T13:18:42Z</time>
      </trkpt>
      <trkpt lat="42.759013" lon="-4.111326">
        <ele>1156.451</ele>
        <time>2021-03-02T13:19:06Z</time>
      </trkpt>
      <trkpt lat="42.759643" lon="-4.111448">
        <ele>1155.482</ele>
        <time>2021-03-02T13:20:35Z</time>
      </trkpt>
      <trkpt lat="42.760054" lon="-4.111166">
        <ele>1154.485</ele>
        <time>2021-03-02T13:21:17Z</time>
      </trkpt>
      <trkpt lat="42.760536" lon="-4.111149">
        <ele>1155.856</ele>
        <time>2021-03-02T13:22:05Z</time>
      </trkpt>
      <trkpt lat="42.760731" lon="-4.110948">
        <ele>1160.936</ele>
        <time>2021-03-02T13:22:33Z</time>
      </trkpt>
      <trkpt lat="42.761020" lon="-4.111171">
        <ele>1164.089</ele>
        <time>2021-03-02T13:23:17Z</time>
      </trkpt>
      <trkpt lat="42.761220" lon="-4.111123">
        <ele>1165.088</ele>
        <time>2021-03-02T13:23:36Z</time>
      </trkpt>
      <trkpt lat="42.761944" lon="-4.111337">
        <ele>1164.260</ele>
        <time>2021-03-02T13:24:44Z</time>
      </trkpt>
      <trkpt lat="42.762993" lon="-4.111989">
        <ele>1164.272</ele>
        <time>2021-03-02T13:28:14Z</time>
      </trkpt>
      <trkpt lat="42.763874" lon="-4.112247">
        <ele>1163.813</ele>
        <time>2021-03-02T13:29:35Z</time>
      </trkpt>
      <trkpt lat="42.764777" lon="-4.112734">
        <ele>1168.214</ele>
        <time>2021-03-02T13:31:05Z</time>
      </trkpt>
      <trkpt lat="42.765318" lon="-4.112951">
        <ele>1167.808</ele>
        <time>2021-03-02T13:31:55Z</time>
      </trkpt>
      <trkpt lat="42.765700" lon="-4.112897">
        <ele>1166.663</ele>
        <time>2021-03-02T13:32:28Z</time>
      </trkpt>
      <trkpt lat="42.767015" lon="-4.113566">
        <ele>1162.534</ele>
        <time>2021-03-02T13:34:33Z</time>
      </trkpt>
      <trkpt lat="42.768410" lon="-4.113934">
        <ele>1167.677</ele>
        <time>2021-03-02T13:36:53Z</time>
      </trkpt>
      <trkpt lat="42.770694" lon="-4.115351">
        <ele>1167.128</ele>
        <time>2021-03-02T13:40:31Z</time>
      </trkpt>
      <trkpt lat="42.771714" lon="-4.115734">
        <ele>1167.598</ele>
        <time>2021-03-02T13:41:59Z</time>
      </trkpt>
      <trkpt lat="42.771962" lon="-4.115726">
        <ele>1167.411</ele>
        <time>2021-03-02T13:42:21Z</time>
      </trkpt>
      <trkpt lat="42.772453" lon="-4.116529">
        <ele>1160.120</ele>
        <time>2021-03-02T13:43:38Z</time>
      </trkpt>
      <trkpt lat="42.772647" lon="-4.116535">
        <ele>1160.512</ele>
        <time>2021-03-02T13:45:10Z</time>
      </trkpt>
      <trkpt lat="42.772490" lon="-4.116701">
        <ele>1160.021</ele>
        <time>2021-03-02T13:45:57Z</time>
      </trkpt>
      <trkpt lat="42.772465" lon="-4.116578">
        <ele>1161.641</ele>
        <time>2021-03-02T13:48:21Z</time>
      </trkpt>
      <trkpt lat="42.774069" lon="-4.120030">
        <ele>1144.105</ele>
        <time>2021-03-02T13:53:38Z</time>
      </trkpt>
      <trkpt lat="42.774055" lon="-4.120765">
        <ele>1139.108</ele>
        <time>2021-03-02T13:54:25Z</time>
      </trkpt>
      <trkpt lat="42.774303" lon="-4.121404">
        <ele>1134.878</ele>
        <time>2021-03-02T13:55:24Z</time>
      </trkpt>
      <trkpt lat="42.773719" lon="-4.122223">
        <ele>1128.089</ele>
        <time>2021-03-02T13:57:18Z</time>
      </trkpt>
      <trkpt lat="42.773158" lon="-4.123695">
        <ele>1122.042</ele>
        <time>2021-03-02T13:59:07Z</time>
      </trkpt>
      <trkpt lat="42.773002" lon="-4.123855">
        <ele>1121.483</ele>
        <time>2021-03-02T13:59:24Z</time>
      </trkpt>
      <trkpt lat="42.772599" lon="-4.125155">
        <ele>1113.013</ele>
        <time>2021-03-02T14:01:21Z</time>
      </trkpt>
      <trkpt lat="42.772353" lon="-4.125237">
        <ele>1105.596</ele>
        <time>2021-03-02T14:01:59Z</time>
      </trkpt>
      <trkpt lat="42.772209" lon="-4.126914">
        <ele>1072.635</ele>
        <time>2021-03-02T14:04:24Z</time>
      </trkpt>
      <trkpt lat="42.772447" lon="-4.126834">
        <ele>1064.487</ele>
        <time>2021-03-02T14:05:38Z</time>
      </trkpt>
      <trkpt lat="42.772424" lon="-4.127306">
        <ele>1062.177</ele>
        <time>2021-03-02T14:06:44Z</time>
      </trkpt>
      <trkpt lat="42.771859" lon="-4.128307">
        <ele>1055.961</ele>
        <time>2021-03-02T14:09:25Z</time>
      </trkpt>
      <trkpt lat="42.771103" lon="-4.129203">
        <ele>1045.127</ele>
        <time>2021-03-02T14:12:39Z</time>
      </trkpt>
      <trkpt lat="42.770618" lon="-4.128913">
        <ele>1049.908</ele>
        <time>2021-03-02T14:13:55Z</time>
      </trkpt>
      <trkpt lat="42.770370" lon="-4.129003">
        <ele>1054.213</ele>
        <time>2021-03-02T14:16:09Z</time>
      </trkpt>
      <trkpt lat="42.770523" lon="-4.129002">
        <ele>1054.664</ele>
        <time>2021-03-02T14:18:10Z</time>
      </trkpt>
      <trkpt lat="42.770342" lon="-4.129132">
        <ele>1051.937</ele>
        <time>2021-03-02T14:18:56Z</time>
      </trkpt>
      <trkpt lat="42.770358" lon="-4.129628">
        <ele>1062.078</ele>
        <time>2021-03-02T14:20:08Z</time>
      </trkpt>
      <trkpt lat="42.770021" lon="-4.130304">
        <ele>1073.878</ele>
        <time>2021-03-02T14:24:01Z</time>
      </trkpt>
      <trkpt lat="42.769809" lon="-4.131376">
        <ele>1062.811</ele>
        <time>2021-03-02T14:27:09Z</time>
      </trkpt>
      <trkpt lat="42.769913" lon="-4.131449">
        <ele>1064.780</ele>
        <time>2021-03-02T14:32:31Z</time>
      </trkpt>
      <trkpt lat="42.769767" lon="-4.131265">
        <ele>1069.322</ele>
        <time>2021-03-02T14:45:42Z</time>
      </trkpt>
      <trkpt lat="42.769824" lon="-4.131346">
        <ele>1069.294</ele>
        <time>2021-03-02T14:46:24Z</time>
      </trkpt>
      <trkpt lat="42.769462" lon="-4.132228">
        <ele>1058.857</ele>
        <time>2021-03-02T14:47:34Z</time>
      </trkpt>
      <trkpt lat="42.768686" lon="-4.134995">
        <ele>1059.422</ele>
        <time>2021-03-02T14:50:40Z</time>
      </trkpt>
      <trkpt lat="42.768414" lon="-4.135496">
        <ele>1064.308</ele>
        <time>2021-03-02T14:51:19Z</time>
      </trkpt>
      <trkpt lat="42.767649" lon="-4.136390">
        <ele>1054.595</ele>
        <time>2021-03-02T14:52:44Z</time>
      </trkpt>
      <trkpt lat="42.767579" lon="-4.136757">
        <ele>1060.276</ele>
        <time>2021-03-02T14:53:29Z</time>
      </trkpt>
      <trkpt lat="42.767383" lon="-4.136750">
        <ele>1065.729</ele>
        <time>2021-03-02T14:56:28Z</time>
      </trkpt>
    </trkseg>
  </trk></gpx>